Terminal Aerodrome Forecast
Issued by NWS

Home | Current Version | Previous Version | Text Only | Print | Product List | Glossary On
Versions: 1 2 3 4 5 6 7 8 9 10 11 12 13 14 15 16 17 18 19 20 21 22 23 24 25 26 27 28 29 30 31 32 33 34 35 36 37 38 39 40 41 42 43 44 45 46
000
FTUS41 KRNK 290526
TAFLWB
TAF
KLWB 290526Z 2906/3006 32005KT P6SM OVC025
     FM290800 VRB03KT 4SM BR OVC015
     FM291600 VRB03KT P6SM SCT025
     FM300400 04004KT P6SM SCT050
     FM300500 05004KT P6SM BKN015=

USA.gov is the U.S. government's official web portal to all federal, state and local government web resources and services.